Westby, Wisconsin
Current Conditions -  °F | °C
As of 7:15 PM on Thursday 27 Nov 2014 (Local Time) from KY51 Reporting Station
Clear Clear  
Wind Chill:   Ceiling: Unl
Heat Index:   Visibility: 10mi
Dew Point: -1°   Wind: 0mph
Humidity: 70%   Direction: NA
Pressure: 30.33"   Gusts: NA
Location:  43.66°N, 90.85°W
Report Text: KY51 280115Z AUTO 00000KT 10SM CLR M14/M18 A3033 RMK AO1 T11411185
Loading
Personal Weather Stations






























Interactive Weather Map New forecast layout! Learn more

10-Day Weather Forecast

Advertisements
Track Severe Weather on mobile